createdAt,value
2018-09-25T00:01:48.673Z,3.97
2018-09-25T00:04:26.717Z,4.20
2018-09-25T00:07:05.245Z,4.83
2018-09-25T00:09:43.544Z,4.93
2018-09-25T00:12:23.082Z,3.60
2018-09-25T00:15:00.937Z,5.05
2018-09-25T00:17:40.191Z,4.80
2018-09-25T00:20:18.390Z,5.67
2018-09-25T00:22:56.612Z,4.80
2018-09-25T00:25:35.634Z,5.15
2018-09-25T00:28:14.109Z,4.43
2018-09-25T00:30:52.277Z,4.80
2018-09-25T00:33:31.236Z,4.03
2018-09-25T00:36:09.238Z,3.70
2018-09-25T00:38:47.549Z,3.53
2018-09-25T00:41:25.661Z,4.97
2018-09-25T00:44:04.301Z,4.80
2018-09-25T00:46:42.610Z,3.93
2018-09-25T00:49:21.097Z,4.00
2018-09-25T00:51:59.065Z,4.60
2018-09-25T00:54:37.560Z,5.27
2018-09-25T00:57:15.445Z,3.90
2018-09-25T00:59:54.725Z,4.47
2018-09-25T01:02:32.648Z,3.73
2018-09-25T01:05:10.876Z,4.17
2018-09-25T01:07:49.560Z,3.80
2018-09-25T01:10:27.850Z,3.63
2018-09-25T01:13:06.104Z,4.47
2018-09-25T01:15:44.316Z,5.53
2018-09-25T01:18:22.372Z,5.47
2018-09-25T01:21:00.883Z,5.23
2018-09-25T01:23:40.080Z,6.43
2018-09-25T01:26:18.383Z,12.88
2018-09-25T01:28:56.852Z,9.30
2018-09-25T01:31:35.356Z,7.80
2018-09-25T01:34:13.356Z,6.12
2018-09-25T01:36:52.861Z,5.70
2018-09-25T01:39:31.861Z,5.60
2018-09-25T01:42:11.524Z,6.33
2018-09-25T01:44:50.096Z,5.10
2018-09-25T01:47:28.634Z,5.40
2018-09-25T01:50:06.669Z,7.20
2018-09-25T01:52:45.279Z,5.80
2018-09-25T01:55:23.404Z,5.00
2018-09-25T01:58:02.487Z,5.23
2018-09-25T02:00:40.432Z,4.97
2018-09-25T02:03:18.772Z,4.57
2018-09-25T02:05:56.615Z,4.83
2018-09-25T02:08:36.217Z,4.95
2018-09-25T02:11:14.099Z,4.70
2018-09-25T02:13:52.704Z,4.72
2018-09-25T02:16:30.663Z,4.43
2018-09-25T02:19:08.956Z,3.77
2018-09-25T02:21:48.008Z,3.73
2018-09-25T02:24:26.247Z,4.23
2018-09-25T02:27:05.035Z,5.68
2018-09-25T02:29:43.844Z,4.27
2018-09-25T02:32:22.052Z,5.30
2018-09-25T02:35:00.328Z,9.27
2018-09-25T02:37:38.546Z,6.77
2018-09-25T02:40:17.144Z,7.30
2018-09-25T02:42:55.992Z,5.70
2018-09-25T02:45:34.591Z,5.53
2018-09-25T02:48:12.888Z,6.13
2018-09-25T02:50:52.352Z,5.47
2018-09-25T02:53:30.518Z,5.80
2018-09-25T02:56:09.017Z,6.00
2018-09-25T02:58:46.920Z,6.47
2018-09-25T03:01:26.464Z,4.90
2018-09-25T03:04:04.624Z,4.50
2018-09-25T03:06:43.072Z,5.70
2018-09-25T03:09:21.218Z,6.33
2018-09-25T03:11:59.940Z,6.23
2018-09-25T03:14:38.340Z,7.93
2018-09-25T03:17:16.572Z,6.60
2018-09-25T03:19:56.331Z,6.37
2018-09-25T03:22:34.647Z,5.60
2018-09-25T03:25:13.386Z,7.60
2018-09-25T03:27:51.660Z,5.55
2018-09-25T03:30:32.508Z,5.80
2018-09-25T03:33:12.038Z,4.67
2018-09-25T03:35:50.070Z,4.83
2018-09-25T03:38:28.953Z,4.73
2018-09-25T03:41:06.771Z,5.17
2018-09-25T03:43:44.990Z,5.00
2018-09-25T03:46:23.156Z,3.80
2018-09-25T03:49:01.401Z,4.87
2018-09-25T03:51:39.556Z,6.97
2018-09-25T03:54:17.856Z,6.70
2018-09-25T03:56:56.688Z,7.20
2018-09-25T03:59:35.383Z,7.67
2018-09-25T04:02:13.148Z,7.07
2018-09-25T04:04:51.628Z,9.07
2018-09-25T04:07:30.586Z,7.77
2018-09-25T04:10:09.009Z,7.40
2018-09-25T04:15:29.381Z,6.10
2018-09-25T04:18:07.569Z,6.57
2018-09-25T04:20:47.780Z,7.40
2018-09-25T04:23:25.918Z,8.07
2018-09-25T04:26:04.768Z,6.67
2018-09-25T04:28:43.969Z,9.07
2018-09-25T04:31:22.476Z,10.00
2018-09-25T04:34:02.464Z,7.87
2018-09-25T04:36:40.861Z,8.10
2018-09-25T04:39:18.870Z,8.73
2018-09-25T04:41:57.485Z,6.93
2018-09-25T04:44:35.661Z,8.37
2018-09-25T04:47:13.719Z,7.53
2018-09-25T04:49:52.380Z,7.87
2018-09-25T04:52:30.820Z,7.60
2018-09-25T04:55:08.809Z,9.07
2018-09-25T04:57:47.164Z,8.90
2018-09-25T05:00:25.199Z,8.37
2018-09-25T05:03:05.821Z,13.18
2018-09-25T05:05:43.897Z,12.67
2018-09-25T05:08:23.467Z,10.13
2018-09-25T05:11:01.585Z,13.45
2018-09-25T05:13:39.961Z,9.93
2018-09-25T05:16:18.285Z,11.30
2018-09-25T05:18:56.900Z,10.93
2018-09-25T05:21:37.682Z,11.67
2018-09-25T05:24:20.077Z,14.93
2018-09-25T05:27:03.735Z,10.63
2018-09-25T05:29:42.316Z,12.23
2018-09-25T05:32:21.253Z,14.80
2018-09-25T05:35:00.802Z,15.98
2018-09-25T05:37:40.561Z,15.00
2018-09-25T05:40:29.515Z,13.03
2018-09-25T05:43:09.046Z,11.83
2018-09-25T05:45:48.585Z,12.70
2018-09-25T05:48:28.023Z,18.37
2018-09-25T05:51:07.324Z,14.90
2018-09-25T05:53:47.725Z,13.97
2018-09-25T05:56:27.412Z,16.57
2018-09-25T05:59:06.344Z,13.60
2018-09-25T06:01:44.738Z,13.90
2018-09-25T06:04:22.712Z,15.27
2018-09-25T06:07:01.005Z,14.77
2018-09-25T06:09:38.968Z,14.17
2018-09-25T06:12:18.332Z,13.00
2018-09-25T06:14:57.145Z,19.90
2018-09-25T06:17:35.804Z,17.08
2018-09-25T06:20:13.982Z,17.57
2018-09-25T06:23:00.766Z,14.20
2018-09-25T06:25:39.609Z,14.47
2018-09-25T06:28:18.264Z,11.07
2018-09-25T06:30:56.625Z,16.43
2018-09-25T06:33:35.100Z,44.30
2018-09-25T06:36:14.029Z,30.53
2018-09-25T06:38:53.875Z,29.93
2018-09-25T06:41:33.825Z,30.45
2018-09-25T06:44:11.863Z,29.80
2018-09-25T06:46:50.051Z,23.80
2018-09-25T06:49:29.093Z,23.33
2018-09-25T06:52:08.089Z,21.63
2018-09-25T06:54:48.760Z,21.90
2018-09-25T06:57:27.372Z,24.37
2018-09-25T07:00:05.776Z,23.80
2018-09-25T07:02:46.964Z,25.53
2018-09-25T07:05:27.949Z,34.97
2018-09-25T07:08:07.345Z,28.60
2018-09-25T07:10:45.830Z,28.80
2018-09-25T07:13:24.291Z,34.33
2018-09-25T07:16:07.117Z,32.53
2018-09-25T07:18:45.202Z,33.53
2018-09-25T07:21:24.735Z,35.43
2018-09-25T07:24:04.700Z,40.13
2018-09-25T07:26:46.133Z,45.43
2018-09-25T07:29:27.745Z,49.63
2018-09-25T07:32:08.029Z,50.60
2018-09-25T07:34:49.563Z,62.87
2018-09-25T07:37:31.026Z,61.90
2018-09-25T07:40:11.256Z,59.10
2018-09-25T07:42:49.695Z,59.30
2018-09-25T07:45:28.285Z,55.20
2018-09-25T07:48:07.821Z,51.83
2018-09-25T07:50:47.130Z,51.27
2018-09-25T07:53:26.990Z,47.53
2018-09-25T07:56:09.529Z,38.20
2018-09-25T07:58:49.153Z,37.13
2018-09-25T08:01:28.424Z,36.53
2018-09-25T08:04:06.672Z,33.13
2018-09-25T08:06:48.345Z,32.70
2018-09-25T08:09:29.360Z,27.60
2018-09-25T08:12:07.618Z,25.23
2018-09-25T08:14:49.574Z,24.80
2018-09-25T08:17:27.783Z,21.30
2018-09-25T08:20:08.133Z,22.10
2018-09-25T08:22:47.184Z,19.37
2018-09-25T08:25:26.552Z,18.07
2018-09-25T08:28:05.396Z,17.47
2018-09-25T08:30:48.024Z,16.57
2018-09-25T08:33:30.765Z,16.52
2018-09-25T08:36:10.324Z,12.73
2018-09-25T08:38:49.502Z,12.63
2018-09-25T08:41:28.076Z,13.90
2018-09-25T08:44:08.081Z,14.10
2018-09-25T08:46:48.444Z,11.57
2018-09-25T08:49:26.637Z,10.13
2018-09-25T08:52:05.153Z,11.60
2018-09-25T08:54:43.901Z,10.60
2018-09-25T08:57:22.929Z,10.53
2018-09-25T09:00:03.666Z,10.73
2018-09-25T09:02:41.979Z,10.87
2018-09-25T09:05:20.692Z,11.50
2018-09-25T09:08:00.443Z,10.37
2018-09-25T09:10:39.149Z,9.80
2018-09-25T09:13:18.508Z,10.07
2018-09-25T09:15:59.170Z,8.90
2018-09-25T09:18:39.112Z,7.57
2018-09-25T09:21:18.531Z,8.17
2018-09-25T09:23:57.982Z,9.07
2018-09-25T09:26:37.259Z,7.53
2018-09-25T09:29:17.261Z,7.90
2018-09-25T09:31:56.621Z,7.53
2018-09-25T09:34:36.560Z,8.57
2018-09-25T09:37:17.021Z,7.20
2018-09-25T09:39:56.061Z,8.40
2018-09-25T09:42:35.873Z,7.10
2018-09-25T09:45:16.676Z,6.70
2018-09-25T09:47:57.681Z,6.40
2018-09-25T09:50:38.399Z,5.83
2018-09-25T09:53:16.536Z,5.43
2018-09-25T09:55:58.212Z,7.33
2018-09-25T09:58:36.345Z,6.30
2018-09-25T10:01:14.948Z,7.05
2018-09-25T10:03:53.820Z,6.07
2018-09-25T10:06:34.602Z,5.87
2018-09-25T10:09:16.650Z,5.90
2018-09-25T10:11:56.685Z,6.57
2018-09-25T10:14:35.230Z,5.62
2018-09-25T10:17:13.409Z,5.10
2018-09-25T10:19:52.664Z,5.60
2018-09-25T10:22:32.745Z,5.10
2018-09-25T10:25:12.101Z,4.70
2018-09-25T10:27:50.330Z,5.23
2018-09-25T10:30:30.712Z,4.87
2018-09-25T10:33:09.529Z,4.70
2018-09-25T10:35:49.183Z,4.13
2018-09-25T10:38:27.402Z,4.17
2018-09-25T10:41:05.825Z,3.00
2018-09-25T10:43:51.576Z,2.90
2018-09-25T10:46:33.262Z,3.20
2018-09-25T10:49:15.028Z,2.57
2018-09-25T10:51:54.353Z,2.90
2018-09-25T10:54:32.875Z,2.70
2018-09-25T10:57:12.504Z,3.30
2018-09-25T10:59:55.839Z,2.67
2018-09-25T11:02:39.519Z,2.27
2018-09-25T11:05:19.466Z,3.17
2018-09-25T11:07:58.443Z,2.37
2018-09-25T11:10:37.453Z,2.53
2018-09-25T11:13:17.712Z,2.37
2018-09-25T11:15:58.590Z,2.95
2018-09-25T11:18:37.358Z,2.57
2018-09-25T11:21:17.900Z,2.10
2018-09-25T11:23:58.979Z,2.10
2018-09-25T11:26:45.470Z,2.27
2018-09-25T11:29:26.783Z,2.20
2018-09-25T11:32:05.767Z,1.87
2018-09-25T11:34:46.824Z,2.03
2018-09-25T11:37:27.101Z,1.93
2018-09-25T11:40:07.076Z,1.60
2018-09-25T11:42:48.564Z,2.70
2018-09-25T11:45:28.876Z,1.80
2018-09-25T11:48:07.173Z,1.77
2018-09-25T11:50:46.346Z,1.80
2018-09-25T11:53:24.800Z,1.87
2018-09-25T11:56:06.633Z,2.20
2018-09-25T11:58:45.485Z,1.87
2018-09-25T12:01:25.484Z,2.00
2018-09-25T12:04:04.864Z,2.03
2018-09-25T12:06:53.491Z,1.80
2018-09-25T12:09:33.989Z,1.90
2018-09-25T12:12:13.214Z,2.23
2018-09-25T12:14:54.025Z,2.13
2018-09-25T12:17:32.208Z,1.57
2018-09-25T12:20:11.949Z,2.22
2018-09-25T12:22:51.968Z,1.73
2018-09-25T12:25:33.000Z,1.47
2018-09-25T12:28:15.699Z,1.80
2018-09-25T12:30:58.013Z,1.57
2018-09-25T12:33:37.727Z,1.70
2018-09-25T12:36:18.176Z,1.53
2018-09-25T12:38:56.433Z,1.60
2018-09-25T12:41:36.461Z,1.40
2018-09-25T12:44:16.585Z,1.63
2018-09-25T12:46:55.343Z,1.50
2018-09-25T12:49:33.371Z,1.90
2018-09-25T12:52:12.580Z,1.87
2018-09-25T12:54:51.671Z,1.60
2018-09-25T12:57:30.221Z,1.87
2018-09-25T13:00:13.513Z,1.73
2018-09-25T13:02:53.820Z,1.67
2018-09-25T13:05:34.447Z,1.43
2018-09-25T13:08:14.328Z,1.50
2018-09-25T13:10:52.292Z,1.57
2018-09-25T13:13:31.769Z,1.20
2018-09-25T13:16:13.479Z,1.10
2018-09-25T13:18:51.793Z,1.50
2018-09-25T13:21:31.108Z,1.40
2018-09-25T13:24:10.670Z,1.80
2018-09-25T13:26:51.770Z,1.47
2018-09-25T13:29:32.167Z,2.00
2018-09-25T13:32:13.406Z,1.47
2018-09-25T13:34:55.469Z,1.50
2018-09-25T13:37:34.768Z,1.40
2018-09-25T13:40:20.242Z,1.70
2018-09-25T13:43:01.931Z,1.33
2018-09-25T13:45:41.401Z,1.60
2018-09-25T13:48:20.104Z,1.47
2018-09-25T13:50:59.895Z,1.30
2018-09-25T13:53:39.954Z,1.37
2018-09-25T13:56:20.881Z,1.13
2018-09-25T13:59:00.423Z,1.37
2018-09-25T14:01:39.097Z,1.07
2018-09-25T14:04:18.085Z,1.30
2018-09-25T14:06:58.611Z,1.27
2018-09-25T14:09:38.475Z,1.17
2018-09-25T14:12:18.264Z,1.00
2018-09-25T14:14:58.792Z,1.23
2018-09-25T14:17:39.700Z,1.13
2018-09-25T14:20:17.645Z,1.13
2018-09-25T14:22:57.031Z,1.30
2018-09-25T14:25:41.770Z,1.30
2018-09-25T14:28:21.697Z,0.90
2018-09-25T14:31:00.207Z,1.00
2018-09-25T14:33:38.895Z,1.70
2018-09-25T14:36:19.123Z,2.05
2018-09-25T14:39:04.893Z,1.27
2018-09-25T14:41:43.794Z,1.20
2018-09-25T14:44:24.304Z,1.70
2018-09-25T14:47:02.944Z,1.23
2018-09-25T14:49:42.887Z,1.27
2018-09-25T14:52:22.455Z,1.10
2018-09-25T14:55:01.240Z,1.50
2018-09-25T14:57:39.543Z,1.00
2018-09-25T15:00:20.384Z,1.23
2018-09-25T15:02:58.748Z,1.30
2018-09-25T15:05:38.201Z,1.20
2018-09-25T15:08:18.554Z,1.35
2018-09-25T15:10:56.863Z,1.13
2018-09-25T15:13:35.640Z,1.20
2018-09-25T15:16:15.436Z,1.63
2018-09-25T15:18:55.288Z,1.50
2018-09-25T15:21:38.519Z,1.50
2018-09-25T15:24:16.706Z,1.60
2018-09-25T15:26:57.181Z,1.73
2018-09-25T15:29:35.585Z,1.30
2018-09-25T15:32:17.657Z,1.07
2018-09-25T15:34:57.892Z,1.20
2018-09-25T15:37:49.581Z,1.20
2018-09-25T15:40:29.770Z,1.20
2018-09-25T15:43:15.680Z,1.30
2018-09-25T15:45:55.627Z,1.60
2018-09-25T15:48:38.649Z,1.40
2018-09-25T15:51:22.150Z,0.90
2018-09-25T15:54:06.572Z,1.10
2018-09-25T15:56:53.764Z,1.30
2018-09-25T15:59:33.292Z,1.20
2018-09-25T16:02:13.224Z,0.93
2018-09-25T16:04:56.644Z,1.20
2018-09-25T16:07:36.915Z,1.10
2018-09-25T16:10:16.081Z,0.77
2018-09-25T16:12:55.852Z,1.10
2018-09-25T16:15:35.586Z,1.00
2018-09-25T16:18:14.173Z,1.10
2018-09-25T16:20:52.632Z,1.17
2018-09-25T16:23:30.629Z,1.10
2018-09-25T16:26:11.424Z,1.07
2018-09-25T16:28:50.553Z,1.00
2018-09-25T16:31:31.089Z,0.93
2018-09-25T16:34:10.048Z,0.93
2018-09-25T16:36:51.056Z,1.17
2018-09-25T16:39:29.044Z,1.20
2018-09-25T16:42:09.006Z,1.20
2018-09-25T16:44:48.680Z,0.93
2018-09-25T16:47:27.641Z,1.20
2018-09-25T16:50:06.299Z,1.50
2018-09-25T16:52:45.925Z,1.30
2018-09-25T16:55:24.144Z,1.40
2018-09-25T16:58:03.007Z,1.30
2018-09-25T17:00:41.120Z,1.23
2018-09-25T17:03:20.420Z,1.20
2018-09-25T17:06:01.771Z,1.00
2018-09-25T17:08:45.647Z,1.40
2018-09-25T17:11:27.399Z,1.30
2018-09-25T17:14:20.046Z,1.10
2018-09-25T17:16:59.805Z,1.20
2018-09-25T17:19:42.175Z,1.20
2018-09-25T17:22:21.970Z,1.30
2018-09-25T17:25:01.142Z,1.90
2018-09-25T17:27:41.845Z,2.00
2018-09-25T17:30:27.300Z,1.70
2018-09-25T17:33:07.367Z,1.60
2018-09-25T17:35:46.787Z,2.50
2018-09-25T17:38:32.816Z,1.43
2018-09-25T17:41:13.313Z,1.67
2018-09-25T17:43:51.512Z,1.50
2018-09-25T17:46:31.073Z,1.33
2018-09-25T17:49:10.578Z,2.00
2018-09-25T17:51:49.590Z,1.33
2018-09-25T17:54:28.671Z,1.60
2018-09-25T17:57:08.313Z,1.70
2018-09-25T17:59:50.036Z,2.00
2018-09-25T18:02:29.212Z,2.40
2018-09-25T18:05:08.033Z,1.70
2018-09-25T18:07:48.569Z,1.80
2018-09-25T18:10:27.760Z,1.60
2018-09-25T18:13:07.101Z,2.87
2018-09-25T18:15:48.373Z,2.60
2018-09-25T18:18:26.385Z,2.30
2018-09-25T18:21:05.546Z,2.50
2018-09-25T18:23:49.401Z,2.40
2018-09-25T18:26:32.042Z,2.70
2018-09-25T18:29:12.142Z,3.07
2018-09-25T18:31:58.278Z,2.43
2018-09-25T18:34:39.408Z,2.33
2018-09-25T18:37:20.596Z,2.78
2018-09-25T18:40:08.942Z,2.63
2018-09-25T18:42:47.755Z,2.60
2018-09-25T18:45:27.753Z,3.07
2018-09-25T18:48:09.093Z,2.37
2018-09-25T18:50:47.725Z,2.80
2018-09-25T18:53:25.905Z,3.33
2018-09-25T18:56:04.501Z,3.20
2018-09-25T18:58:43.676Z,3.50
2018-09-25T19:01:22.689Z,2.87
2018-09-25T19:04:00.893Z,2.47
2018-09-25T19:06:39.192Z,3.20
2018-09-25T19:09:18.348Z,2.93
2018-09-25T19:11:57.777Z,2.60
2018-09-25T19:14:42.749Z,2.30
2018-09-25T19:17:24.717Z,2.90
2018-09-25T19:20:04.165Z,3.80
2018-09-25T19:22:44.452Z,5.03
2018-09-25T19:25:26.708Z,3.40
2018-09-25T19:28:08.400Z,3.10
2018-09-25T19:30:49.449Z,3.87
2018-09-25T19:33:30.425Z,4.20
2018-09-25T19:36:09.784Z,3.60
2018-09-25T19:38:49.909Z,2.83
2018-09-25T19:41:28.829Z,4.18
2018-09-25T19:44:09.123Z,3.90
2018-09-25T19:46:49.923Z,3.50
2018-09-25T19:49:29.245Z,3.57
2018-09-25T19:52:08.219Z,3.93
2018-09-25T19:54:47.366Z,3.67
2018-09-25T19:57:27.600Z,3.70
2018-09-25T20:00:05.705Z,3.40
2018-09-25T20:02:44.177Z,4.22
2018-09-25T20:05:31.633Z,3.97
2018-09-25T20:08:11.010Z,3.40
2018-09-25T20:10:49.636Z,3.80
2018-09-25T20:13:27.840Z,4.10
2018-09-25T20:16:11.134Z,5.70
2018-09-25T20:18:50.767Z,5.07
2018-09-25T20:21:32.335Z,4.20
2018-09-25T20:24:11.407Z,4.95
2018-09-25T20:26:52.728Z,4.37
2018-09-25T20:32:08.485Z,3.50
2018-09-25T20:34:50.537Z,3.30
2018-09-25T20:37:29.938Z,3.47
2018-09-25T20:40:09.549Z,3.27
2018-09-25T20:42:50.668Z,3.90
2018-09-25T20:45:28.628Z,4.50
2018-09-25T20:48:11.228Z,4.00
2018-09-25T20:50:58.138Z,3.97
2018-09-25T20:53:37.441Z,3.57
2018-09-25T20:56:15.569Z,4.97
2018-09-25T20:58:56.973Z,4.47
2018-09-25T21:01:37.421Z,4.00
2018-09-25T21:04:16.454Z,4.60
2018-09-25T21:06:56.360Z,4.90
2018-09-25T21:09:37.914Z,4.47
2018-09-25T21:12:16.907Z,4.90
2018-09-25T21:14:57.632Z,5.12
2018-09-25T21:17:39.114Z,5.20
2018-09-25T21:20:18.079Z,4.53
2018-09-25T21:22:59.565Z,4.77
2018-09-25T21:25:40.431Z,5.07
2018-09-25T21:28:18.352Z,4.27
2018-09-25T21:30:58.769Z,4.37
2018-09-25T21:33:36.907Z,4.00
2018-09-25T21:36:17.125Z,3.27
2018-09-25T21:38:55.688Z,3.28
2018-09-25T21:41:35.057Z,2.90
2018-09-25T21:44:13.208Z,3.35
2018-09-25T21:46:51.496Z,3.20
2018-09-25T21:49:30.252Z,3.70
2018-09-25T21:52:08.547Z,3.50
2018-09-25T21:54:50.477Z,3.47
2018-09-25T21:57:30.677Z,3.50
2018-09-25T22:00:14.242Z,3.87
2018-09-25T22:02:52.585Z,3.07
2018-09-25T22:05:30.568Z,2.70
2018-09-25T22:08:09.572Z,2.80
2018-09-25T22:10:47.829Z,2.47
2018-09-25T22:13:27.000Z,2.57
2018-09-25T22:16:05.675Z,2.10
2018-09-25T22:18:44.536Z,2.07
2018-09-25T22:21:23.555Z,1.93
2018-09-25T22:24:02.567Z,2.35
2018-09-25T22:26:43.701Z,2.40
2018-09-25T22:29:23.596Z,2.27
2018-09-25T22:32:01.555Z,2.20
2018-09-25T22:34:40.153Z,2.30
2018-09-25T22:37:18.288Z,2.47
2018-09-25T22:39:56.880Z,2.17
2018-09-25T22:42:35.198Z,2.03
2018-09-25T22:45:12.828Z,2.30
2018-09-25T22:47:50.725Z,1.95
2018-09-25T22:50:29.030Z,1.60
2018-09-25T22:53:10.116Z,1.98
2018-09-25T22:55:48.421Z,2.00
2018-09-25T22:58:26.625Z,1.67
2018-09-25T23:01:14.593Z,1.80
2018-09-25T23:03:52.487Z,1.53
2018-09-25T23:06:30.916Z,1.70
2018-09-25T23:09:11.541Z,1.70
2018-09-25T23:11:50.121Z,1.70
2018-09-25T23:14:28.058Z,1.50
2018-09-25T23:17:06.485Z,1.47
2018-09-25T23:19:45.098Z,1.70
2018-09-25T23:22:23.527Z,1.47
2018-09-25T23:25:01.566Z,1.40
2018-09-25T23:27:40.355Z,2.00
2018-09-25T23:30:20.610Z,1.60
2018-09-25T23:32:59.329Z,1.70
2018-09-25T23:35:37.724Z,1.63
2018-09-25T23:38:16.023Z,1.63
2018-09-25T23:41:12.817Z,1.63
2018-09-25T23:44:10.002Z,1.33
2018-09-25T23:46:54.139Z,1.63
2018-09-25T23:49:38.817Z,1.70
2018-09-25T23:52:18.655Z,1.87
2018-09-25T23:55:00.149Z,1.50
2018-09-25T23:57:37.636Z,1.53
